Latest Weather Observations for Richmond

IDQ60801

Issued at 4:05 pm EST Monday 22 September 2014 (issued every 30 minutes, with the page automatically refreshed every 10 minutes)

About weather observations | Map of weather stations | Latest weather observations for QLD | Other Formats
Station Details ID: 030161 Name: RICHMOND AIRPORT Lat: -20.70 Lon: 143.12 Height: 206.3 m
Data from the previous 72 hours. | See also: Recent months at Richmond
Date/Time
EST
Temp
°C
App
Temp
°C
Dew
Point
Rel
Hum
%
Delta-T
°C
Wind Press
QNH
hPa
Press
MSL
hPa
Rain
since 9 am
mm
Dir
 
Spd
km/h
Gust
km/h
Spd
kts
Gust
kts
22/04:00pm 32.4 29.1 2.5 15 15.3 SW 9 26 5 14 1011.4 1010.4 0.0
22/03:30pm 31.8 29.0 2.9 16 14.8 W 7 13 4 7 1011.5 1010.5 0.0
22/03:00pm 31.9 28.2 4.6 18 14.4 N 13 20 7 11 1011.6 1010.6 0.0
22/02:30pm 30.9 26.1 4.6 19 13.8 W 19 28 10 15 1012.0 1011.0 0.0
22/02:00pm 32.4 27.5 4.2 17 14.8 NW 19 24 10 13 1012.4 1011.4 0.0
22/01:30pm 31.2 27.6 4.9 19 13.9 W 13 19 7 10 1013.0 1012.0 0.0
22/01:00pm 30.8 27.1 2.1 16 14.4 W 11 19 6 10 1013.6 1012.7 0.0
22/12:30pm 29.0 27.0 7.0 25 11.9 NE 7 17 4 9 1014.1 1013.2 0.0
22/12:00pm 29.1 25.3 7.6 26 11.7 NNE 17 24 9 13 1014.7 1013.7 0.0
22/11:30am 29.7 27.5 9.3 28 11.5 NE 11 20 6 11 1015.4 1014.4 0.0
22/11:00am 28.1 25.5 9.4 31 10.5 N 13 22 7 12 1015.8 1014.8 0.0
22/10:30am 27.6 24.8 9.9 33 10.0 NNW 15 24 8 13 1016.2 1015.2 0.0
22/10:00am 26.8 24.1 11.7 39 8.7 NE 17 24 9 13 1016.4 1015.4 0.0
22/09:30am 25.5 23.0 12.4 44 7.6 NE 17 24 9 13 1016.6 1015.6 0.0
22/09:00am 24.9 23.3 12.8 47 7.0 ENE 13 20 7 11 1016.9 1015.9 0.0
22/08:30am 23.4 20.8 10.8 45 7.1 NE 15 20 8 11 1016.9 1015.9 0.0
22/08:00am 22.1 19.3 5.1 33 8.5 ENE 9 13 5 7 1016.7 1015.7 0.0
22/07:30am 19.3 16.2 3.5 35 7.5 ENE 9 15 5 8 1016.2 1015.2 0.0
22/07:00am 17.2 13.6 2.8 38 6.6 ENE 11 17 6 9 1015.7 1014.7 0.0
22/06:30am 16.5 12.6 3.2 41 6.2 ENE 13 17 7 9 1015.2 1014.2 0.0
22/06:00am 15.4 12.0 4.2 47 5.2 E 11 15 6 8 1015.1 1014.1 0.0
22/05:30am 16.4 12.6 6.0 50 5.1 ESE 15 17 8 9 1014.9 1013.9 0.0
22/05:00am 17.1 13.3 7.7 54 4.8 E 17 19 9 10 1014.3 1013.4 0.0
22/04:30am 17.9 14.7 9.8 59 4.3 ESE 17 19 9 10 1013.7 1012.8 0.0
22/04:00am 18.8 15.8 11.9 64 3.8 SE 19 22 10 12 1013.6 1012.7 0.0
22/03:30am 17.4 14.4 9.3 59 4.3 S 15 17 8 9 1013.4 1012.5 0.0
22/03:00am 17.1 14.1 7.7 54 4.8 S 13 15 7 8 1013.8 1012.9 0.0
22/02:30am 18.4 15.7 8.9 54 5.0 S 13 17 7 9 1014.0 1013.1 0.0
22/02:00am 18.5 14.7 7.6 49 5.6 S 17 20 9 11 1014.2 1013.3 0.0
22/01:30am 18.5 14.1 5.0 41 6.6 S 17 19 9 10 1014.9 1013.9 0.0
22/01:00am 19.2 13.9 2.1 32 7.9 S 19 24 10 13 1015.4 1014.4 0.0
22/12:30am 20.4 14.0 0.8 27 8.9 S 24 32 13 17 1015.4 1014.4 0.0
22/12:00am 20.9 14.0 -2.9 20 10.1 SSE 24 30 13 16 1015.7 1014.7 0.0
 
Date/Time
EST
Temp
°C
App
Temp
°C
Dew
Point
Rel
Hum
%
Delta-T
°C
Wind Press
QNH
hPa
Press
MSL
hPa
Rain
since 9 am
mm
Dir
 
Spd
km/h
Gust
km/h
Spd
kts
Gust
kts
21/11:30pm 21.4 12.9 -1.8 21 10.1 S 33 43 18 23 1015.3 1014.3 0.0
21/11:00pm 21.3 13.1 -1.3 22 9.9 SSW 32 41 17 22 1015.4 1014.4 0.0
21/10:30pm 21.2 14.9 -0.7 23 9.7 S 22 26 12 14 1015.5 1014.5 0.0
21/10:00pm 22.3 16.6 -0.4 22 10.2 S 19 24 10 13 1015.6 1014.6 0.0
21/09:30pm 23.2 16.6 -0.3 21 10.7 S 24 28 13 15 1015.6 1014.6 0.0
21/09:00pm 24.2 16.9 -0.2 20 11.2 S 28 32 15 17 1015.1 1014.1 0.0
21/08:30pm 23.0 17.3 -0.5 21 10.7 SW 19 20 10 11 1014.8 1013.8 0.0
21/08:00pm 22.6 17.4 -0.2 22 10.4 SW 17 17 9 9 1014.7 1013.7 0.0
21/07:30pm 24.3 20.3 0.6 21 11.1 SW 11 15 6 8 1014.3 1013.4 0.0
21/07:00pm 26.1 22.7 2.1 21 11.7 WSW 9 11 5 6 1014.0 1013.1 0.0
21/06:30pm 27.3 23.6 2.4 20 12.3 WSW 11 13 6 7 1013.7 1012.8 0.0
21/06:00pm 29.4 25.9 3.4 19 13.2 WNW 11 17 6 9 1013.3 1012.3 0.0
21/05:30pm 30.2 25.9 3.3 18 13.7 NNW 15 20 8 11 1013.0 1012.0 0.0
21/05:00pm 30.9 26.7 3.8 18 14.0 WNW 15 20 8 11 1013.0 1012.0 0.0
21/04:30pm 30.6 27.0 2.8 17 14.1 NNW 11 19 6 10 1013.0 1012.0 0.0
21/04:00pm 31.3 28.2 3.4 17 14.4 WSW 9 26 5 14 1013.1 1012.1 0.0
21/03:30pm 30.4 25.2 3.4 18 13.8 WNW 20 32 11 17 1013.3 1012.3 0.0
21/03:00pm 30.3 25.3 3.4 18 13.8 WNW 19 30 10 16 1013.5 1012.6 0.0
21/02:30pm 30.7 26.3 2.9 17 14.1 NW 15 28 8 15 1014.0 1013.1 0.0
21/02:00pm 30.6 25.8 2.8 17 14.1 NNW 17 28 9 15 1014.5 1013.5 0.0
21/01:30pm 29.1 26.2 1.6 17 13.5 E 6 19 3 10 1015.0 1014.0 0.0
21/01:00pm 29.9 25.7 1.4 16 14.1 SE 13 20 7 11 1015.6 1014.6 0.0
21/12:30pm 28.5 24.1 0.3 16 13.5 E 13 19 7 10 1016.3 1015.3 0.0
21/12:00pm 27.4 21.7 -0.6 16 13.1 ESE 19 30 10 16 1017.2 1016.2 0.0
21/11:30am 27.6 22.0 1.2 18 12.8 ESE 20 30 11 16 1017.7 1016.8 0.0
21/11:00am 26.5 20.0 0.3 18 12.4 SE 24 30 13 16 1018.1 1017.2 0.0
21/10:30am 25.2 18.5 -0.8 18 11.9 ESE 24 30 13 16 1018.5 1017.6 0.0
21/10:00am 23.8 16.7 -1.2 19 11.2 ESE 26 33 14 18 1018.9 1018.0 0.0
21/09:30am 22.2 14.3 -1.8 20 10.5 SE 30 37 16 20 1018.9 1018.0 0.0
21/09:00am 21.8 14.3 -1.5 21 10.2 SE 28 37 15 20 1019.0 1018.1 0.0
21/08:30am 21.2 14.0 -2.0 21 10.1 SE 26 39 14 21 1019.0 1018.1 0.0
21/08:00am 20.1 12.1 -2.3 22 9.5 SE 30 37 16 20 1018.1 1017.2 0.0
21/07:30am 19.4 12.2 -2.2 23 9.2 SE 26 35 14 19 1017.5 1016.5 0.0
21/07:00am 17.9 10.7 -2.4 25 8.5 SSE 26 32 14 17 1017.3 1016.3 0.0
21/06:30am 17.1 9.8 -3.1 25 8.2 SSE 26 32 14 17 1016.6 1015.6 0.0
21/06:00am 16.7 9.3 -3.4 25 8.1 S 26 33 14 18 1015.9 1014.9 0.0
21/05:30am 16.0 8.5 -4.5 24 8.0 S 26 32 14 17 1015.7 1014.7 0.0
21/05:00am 16.2 8.7 -4.4 24 8.1 S 26 32 14 17 1015.0 1014.0 0.0
21/04:30am 14.7 8.8 -5.6 24 7.7 S 17 19 9 10 1015.1 1014.1 0.0
21/04:00am 15.9 10.4 -5.8 22 8.2 S 15 17 8 9 1015.0 1014.0 0.0
21/03:30am 17.6 12.1 -5.0 21 8.9 ESE 15 19 8 10 1014.3 1013.4 0.0
21/03:00am 18.4 12.1 -4.3 21 9.1 SE 20 24 11 13 1015.0 1014.0 0.0
21/02:30am 18.0 12.1 -5.3 20 9.2 SE 17 20 9 11 1015.5 1014.5 0.0
21/02:00am 18.1 12.2 -5.9 19 9.3 SSE 17 20 9 11 1016.2 1015.2 0.0
21/01:30am 18.8 13.6 -6.0 18 9.7 SE 13 17 7 9 1016.2 1015.2 0.0
21/01:00am 19.2 14.0 -6.4 17 10.0 SSE 13 17 7 9 1016.1 1015.1 0.0
21/12:30am 20.1 14.4 -7.3 15 10.6 SE 15 17 8 9 1016.3 1015.3 0.0
21/12:00am 21.0 15.0 -6.6 15 10.9 SE 17 20 9 11 1016.2 1015.2 0.0
 
Date/Time
EST
Temp
°C
App
Temp
°C
Dew
Point
Rel
Hum
%
Delta-T
°C
Wind Press
QNH
hPa
Press
MSL
hPa
Rain
since 9 am
mm
Dir
 
Spd
km/h
Gust
km/h
Spd
kts
Gust
kts
20/11:30pm 21.8 15.5 -5.9 15 11.2 SE 19 22 10 12 1016.3 1015.3 0.0
20/11:00pm 23.4 16.6 -5.6 14 11.9 ESE 22 30 12 16 1016.2 1015.2 0.0
20/10:30pm 24.3 17.1 -4.9 14 12.3 ESE 24 32 13 17 1016.1 1015.1 0.0
20/10:00pm 25.0 17.5 -4.3 14 12.6 ESE 26 33 14 18 1016.3 1015.3 0.0
20/09:30pm 25.7 18.3 -3.8 14 12.9 SE 26 33 14 18 1016.2 1015.2 0.0
20/09:00pm 26.4 19.9 -2.3 15 12.9 SE 22 30 12 16 1015.9 1014.9 0.0
20/08:30pm 24.3 18.6 -4.0 15 12.1 SSE 17 19 9 10 1015.4 1014.4 0.0
20/08:00pm 25.3 20.0 -3.2 15 12.5 SE 15 17 8 9 1015.2 1014.2 0.0
20/07:30pm 25.9 20.6 -3.6 14 12.9 SSE 15 15 8 8 1015.0 1014.0 0.0
20/07:00pm 27.4 22.2 -2.4 14 13.5 SSE 15 17 8 9 1014.6 1013.6 0.0
20/06:30pm 30.0 23.6 -1.4 13 14.8 SSE 22 28 12 15 1014.1 1013.2 0.0
20/06:00pm 31.3 25.3 -1.5 12 15.6 SSE 20 26 11 14 1013.5 1012.6 0.0
20/05:30pm 32.3 26.4 -0.7 12 16.0 S 20 28 11 15 1013.1 1012.1 0.0
20/05:00pm 33.0 27.0 -1.4 11 16.5 S 20 32 11 17 - 1023.1 0.0
20/04:30pm 33.2 28.2 -1.2 11 16.6 S 15 26 8 14 1012.8 1011.8 0.0
20/04:00pm 33.7 29.1 -0.8 11 16.8 S 13 22 7 12 1012.6 1011.6 0.0
20/03:30pm 32.9 27.7 -0.2 12 16.2 S 17 30 9 16 1012.7 1011.7 0.0
20/03:00pm 33.0 29.7 -0.2 12 16.3 SE 7 22 4 12 1012.7 1011.7 0.0
20/02:30pm 33.1 28.6 -0.1 12 16.3 ESE 13 26 7 14 1013.1 1012.1 0.0
20/02:00pm 32.7 27.8 -0.4 12 16.1 SSE 15 28 8 15 1013.6 1012.7 0.0
20/01:30pm 32.5 27.6 -0.5 12 16.0 E 15 22 8 12 1014.0 1013.1 0.0
20/01:00pm 32.2 28.0 -0.8 12 15.9 ESE 11 22 6 12 1014.8 1013.8 0.0
20/12:30pm 31.0 26.7 -1.7 12 15.4 SSE 11 20 6 11 1015.5 1014.5 0.0
20/12:00pm 31.0 25.4 -2.9 11 15.6 SSE 17 22 9 12 1016.1 1015.1 0.0
20/11:30am 30.2 25.1 -2.3 12 15.1 E 15 24 8 13 1016.7 1015.7 0.0
20/11:00am 28.4 23.1 -3.7 12 14.3 E 15 24 8 13 1017.5 1016.5 0.0
20/10:30am 28.0 22.3 -4.0 12 14.2 E 17 26 9 14 1018.2 1017.3 0.0
20/10:00am 27.2 21.5 -3.6 13 13.6 E 17 28 9 15 1018.5 1017.6 0.0
20/09:30am 26.4 19.8 -3.2 14 13.1 E 22 33 12 18 1018.5 1017.6 0.0
20/09:00am 24.8 17.7 -4.5 14 12.5 E 24 32 13 17 1018.6 1017.7 0.0
20/08:30am 23.9 17.2 -4.3 15 12.0 ENE 22 33 12 18 1018.5 1017.6 0.0
20/08:00am 22.3 17.0 -3.9 17 11.0 E 15 22 8 12 1018.2 1017.3 0.0
20/07:30am 20.3 16.2 -3.4 20 9.9 ENE 9 15 5 8 1018.1 1017.2 0.0
20/07:00am 18.7 13.8 -3.4 22 9.1 E 13 17 7 9 1018.0 1017.1 0.0
20/06:30am 17.5 12.1 -4.4 22 8.7 ENE 15 24 8 13 1017.8 1016.9 0.0
20/06:00am 17.8 12.0 -4.2 22 8.8 E 17 24 9 13 1017.4 1016.4 0.0
20/05:30am 18.2 11.9 -3.8 22 8.9 ESE 20 24 11 13 1017.1 1016.1 0.0
20/05:00am 18.3 12.0 -3.8 22 9.0 E 20 28 11 15 1016.9 1015.9 0.0
20/04:30am 16.9 11.5 -4.3 23 8.4 E 15 19 8 10 1016.7 1015.7 0.0
20/04:00am 15.7 11.0 -5.3 23 8.0 ESE 11 13 6 7 1016.6 1015.6 0.0
20/03:30am 16.9 11.8 -4.9 22 8.5 E 13 17 7 9 1016.4 1015.4 0.0
20/03:00am 18.7 13.4 -4.0 21 9.2 E 15 20 8 11 1016.7 1015.7 0.0
20/02:30am 19.6 12.6 -3.9 20 9.7 SE 24 30 13 16 1016.6 1015.6 0.0
20/02:00am 19.9 12.8 -4.4 19 9.9 SE 24 30 13 16 1016.7 1015.7 0.0
20/01:30am 20.1 12.9 -4.9 18 10.1 SE 24 28 13 15 1017.1 1016.1 0.0
20/01:00am 20.5 13.8 -4.6 18 10.2 SE 22 28 12 15 1017.2 1016.2 0.0
20/12:30am 20.1 14.3 -4.9 18 10.1 SE 17 20 9 11 1017.4 1016.4 0.0
20/12:00am 21.3 14.9 -4.7 17 10.7 SE 20 24 11 13 1017.4 1016.4 0.0
 
Date/Time
EST
Temp
°C
App
Temp
°C
Dew
Point
Rel
Hum
%
Delta-T
°C
Wind Press
QNH
hPa
Press
MSL
hPa
Rain
since 9 am
mm
Dir
 
Spd
km/h
Gust
km/h
Spd
kts
Gust
kts
19/11:30pm 20.3 14.4 -5.5 17 10.3 SE 17 24 9 13 1017.6 1016.7 0.0
19/11:00pm 18.9 13.6 -7.4 16 10.0 SE 13 17 7 9 1017.5 1016.5 0.0
19/10:30pm 21.6 15.1 -6.1 15 11.1 SSE 20 24 11 13 1017.4 1016.4 0.0
19/10:00pm 19.7 14.1 -6.8 16 10.3 SE 15 19 8 10 1017.4 1016.4 0.0
19/09:30pm 20.0 13.9 -7.4 15 10.5 SSE 17 20 9 11 1017.4 1016.4 0.0
19/09:00pm 20.6 15.3 -6.9 15 10.7 SE 13 17 7 9 1017.1 1016.1 0.0
19/08:30pm 21.6 15.2 -7.0 14 11.3 SSE 19 19 10 10 1016.6 1015.6 0.0
19/08:00pm 21.6 15.9 -7.0 14 11.3 S 15 17 8 9 1016.3 1015.3 0.0
19/07:30pm 24.4 18.5 -5.8 13 12.5 SSE 17 19 9 10 1015.8 1014.8 0.0
19/07:00pm 25.3 19.7 -6.1 12 13.0 SSE 15 17 8 9 1015.4 1014.4 0.0
19/06:30pm 29.1 23.0 -4.3 11 14.8 SSE 19 24 10 13 1014.9 1013.9 0.0
19/06:00pm 30.6 23.5 -4.5 10 15.7 SSE 24 32 13 17 1014.7 1013.7 0.0
19/05:30pm 31.5 24.1 -3.8 10 16.1 SSE 26 39 14 21 1014.6 1013.6 0.0
19/05:00pm 32.3 24.0 -4.6 9 16.7 S 30 41 16 22 1014.2 1013.3 0.0
19/04:30pm 32.9 24.3 -4.1 9 17.0 SE 32 43 17 23 1014.0 1013.1 0.0

Other Formats:

Comma delimited format used in spreadsheet applications
http://www.bom.gov.au/fwo/IDQ60801/IDQ60801.94341.axf

JavaScript Object Notation format (JSON) in row-major order
http://www.bom.gov.au/fwo/IDQ60801/IDQ60801.94341.json